sensor_id;sensor_type;location;lat;lon;timestamp;P1;durP1;ratioP1;P2;durP2;ratioP2
23113;SDS011;11726;50.122;8.832;2022-07-04T00:00:15;3.15;;;1.27;;
23113;SDS011;11726;50.122;8.832;2022-07-04T00:02:43;3.85;;;1.20;;
23113;SDS011;11726;50.122;8.832;2022-07-04T00:05:11;4.22;;;1.40;;
23113;SDS011;11726;50.122;8.832;2022-07-04T00:07:42;2.08;;;1.20;;
23113;SDS011;11726;50.122;8.832;2022-07-04T00:10:20;1.45;;;0.98;;
23113;SDS011;11726;50.122;8.832;2022-07-04T00:12:47;2.65;;;1.00;;
23113;SDS011;11726;50.122;8.832;2022-07-04T00:15:14;2.80;;;1.30;;
23113;SDS011;11726;50.122;8.832;2022-07-04T00:17:41;2.33;;;1.20;;
23113;SDS011;11726;50.122;8.832;2022-07-04T00:20:08;3.60;;;1.30;;
23113;SDS011;11726;50.122;8.832;2022-07-04T00:22:36;1.92;;;1.30;;
23113;SDS011;11726;50.122;8.832;2022-07-04T00:25:03;4.07;;;1.17;;
23113;SDS011;11726;50.122;8.832;2022-07-04T00:27:31;1.27;;;1.00;;
23113;SDS011;11726;50.122;8.832;2022-07-04T00:29:57;3.25;;;1.05;;
23113;SDS011;11726;50.122;8.832;2022-07-04T00:32:24;4.72;;;1.20;;
23113;SDS011;11726;50.122;8.832;2022-07-04T00:34:51;2.00;;;1.10;;
23113;SDS011;11726;50.122;8.832;2022-07-04T00:37:17;3.58;;;1.40;;
23113;SDS011;11726;50.122;8.832;2022-07-04T00:39:44;2.65;;;1.10;;
23113;SDS011;11726;50.122;8.832;2022-07-04T00:42:11;3.17;;;1.10;;
23113;SDS011;11726;50.122;8.832;2022-07-04T00:44:37;1.65;;;1.13;;
23113;SDS011;11726;50.122;8.832;2022-07-04T00:47:05;2.65;;;1.02;;
23113;SDS011;11726;50.122;8.832;2022-07-04T00:49:33;2.10;;;1.15;;
23113;SDS011;11726;50.122;8.832;2022-07-04T00:52:00;4.28;;;1.20;;
23113;SDS011;11726;50.122;8.832;2022-07-04T00:54:28;2.40;;;1.05;;
23113;SDS011;11726;50.122;8.832;2022-07-04T00:56:57;1.52;;;1.17;;
23113;SDS011;11726;50.122;8.832;2022-07-04T00:59:26;4.65;;;1.17;;
23113;SDS011;11726;50.122;8.832;2022-07-04T01:01:53;2.15;;;1.00;;
23113;SDS011;11726;50.122;8.832;2022-07-04T01:04:20;2.35;;;1.00;;
23113;SDS011;11726;50.122;8.832;2022-07-04T01:06:47;2.45;;;1.20;;
23113;SDS011;11726;50.122;8.832;2022-07-04T01:09:13;3.38;;;1.20;;
23113;SDS011;11726;50.122;8.832;2022-07-04T01:11:40;5.10;;;1.17;;
23113;SDS011;11726;50.122;8.832;2022-07-04T01:14:07;6.25;;;1.40;;
23113;SDS011;11726;50.122;8.832;2022-07-04T01:16:33;2.45;;;1.05;;
23113;SDS011;11726;50.122;8.832;2022-07-04T01:19:00;4.03;;;1.20;;
23113;SDS011;11726;50.122;8.832;2022-07-04T01:21:27;5.07;;;1.30;;
23113;SDS011;11726;50.122;8.832;2022-07-04T01:23:54;2.55;;;1.13;;
23113;SDS011;11726;50.122;8.832;2022-07-04T01:26:20;2.67;;;1.27;;
23113;SDS011;11726;50.122;8.832;2022-07-04T01:28:48;1.88;;;0.90;;
23113;SDS011;11726;50.122;8.832;2022-07-04T01:31:15;2.35;;;1.10;;
23113;SDS011;11726;50.122;8.832;2022-07-04T01:33:42;1.25;;;0.95;;
23113;SDS011;11726;50.122;8.832;2022-07-04T01:36:08;2.55;;;1.27;;
23113;SDS011;11726;50.122;8.832;2022-07-04T01:38:35;4.95;;;1.20;;
23113;SDS011;11726;50.122;8.832;2022-07-04T01:41:01;3.08;;;1.38;;
23113;SDS011;11726;50.122;8.832;2022-07-04T01:43:28;2.35;;;1.30;;
23113;SDS011;11726;50.122;8.832;2022-07-04T01:45:55;1.67;;;1.00;;
23113;SDS011;11726;50.122;8.832;2022-07-04T01:48:21;2.38;;;1.33;;
23113;SDS011;11726;50.122;8.832;2022-07-04T01:50:48;3.03;;;1.20;;
23113;SDS011;11726;50.122;8.832;2022-07-04T01:53:15;3.78;;;1.40;;
23113;SDS011;11726;50.122;8.832;2022-07-04T01:55:41;3.05;;;1.20;;
23113;SDS011;11726;50.122;8.832;2022-07-04T01:58:08;5.03;;;1.27;;
23113;SDS011;11726;50.122;8.832;2022-07-04T02:00:34;3.40;;;1.27;;
23113;SDS011;11726;50.122;8.832;2022-07-04T02:03:20;2.85;;;1.10;;
23113;SDS011;11726;50.122;8.832;2022-07-04T02:05:46;2.15;;;1.30;;
23113;SDS011;11726;50.122;8.832;2022-07-04T02:08:13;1.38;;;1.10;;
23113;SDS011;11726;50.122;8.832;2022-07-04T02:10:39;4.43;;;1.40;;
23113;SDS011;11726;50.122;8.832;2022-07-04T02:13:07;2.15;;;1.20;;
23113;SDS011;11726;50.122;8.832;2022-07-04T02:15:34;3.47;;;1.50;;
23113;SDS011;11726;50.122;8.832;2022-07-04T02:18:03;1.45;;;1.10;;
23113;SDS011;11726;50.122;8.832;2022-07-04T02:20:32;4.07;;;1.75;;
23113;SDS011;11726;50.122;8.832;2022-07-04T02:22:59;2.28;;;1.30;;
23113;SDS011;11726;50.122;8.832;2022-07-04T02:25:26;2.75;;;1.17;;
23113;SDS011;11726;50.122;8.832;2022-07-04T02:27:52;2.63;;;1.23;;
23113;SDS011;11726;50.122;8.832;2022-07-04T02:30:19;3.78;;;1.58;;
23113;SDS011;11726;50.122;8.832;2022-07-04T02:32:46;2.50;;;1.40;;
23113;SDS011;11726;50.122;8.832;2022-07-04T02:35:12;1.65;;;1.00;;
23113;SDS011;11726;50.122;8.832;2022-07-04T02:37:39;5.60;;;1.52;;
23113;SDS011;11726;50.122;8.832;2022-07-04T02:40:06;1.52;;;1.20;;
23113;SDS011;11726;50.122;8.832;2022-07-04T02:42:34;5.35;;;1.40;;
23113;SDS011;11726;50.122;8.832;2022-07-04T02:45:02;3.60;;;1.17;;
23113;SDS011;11726;50.122;8.832;2022-07-04T02:47:30;5.28;;;1.70;;
23113;SDS011;11726;50.122;8.832;2022-07-04T02:49:56;2.78;;;1.38;;
23113;SDS011;11726;50.122;8.832;2022-07-04T02:52:23;4.10;;;1.45;;
23113;SDS011;11726;50.122;8.832;2022-07-04T02:54:50;2.78;;;1.55;;
23113;SDS011;11726;50.122;8.832;2022-07-04T02:57:18;1.80;;;1.70;;
23113;SDS011;11726;50.122;8.832;2022-07-04T02:59:45;1.65;;;1.25;;
23113;SDS011;11726;50.122;8.832;2022-07-04T03:02:12;4.93;;;1.50;;
23113;SDS011;11726;50.122;8.832;2022-07-04T03:04:40;2.80;;;1.30;;
23113;SDS011;11726;50.122;8.832;2022-07-04T03:07:07;3.42;;;1.60;;
23113;SDS011;11726;50.122;8.832;2022-07-04T03:09:34;4.45;;;1.95;;
23113;SDS011;11726;50.122;8.832;2022-07-04T03:12:00;3.90;;;1.45;;
23113;SDS011;11726;50.122;8.832;2022-07-04T03:14:27;3.00;;;1.40;;
23113;SDS011;11726;50.122;8.832;2022-07-04T03:16:54;2.10;;;1.50;;
23113;SDS011;11726;50.122;8.832;2022-07-04T03:19:21;2.28;;;1.73;;
23113;SDS011;11726;50.122;8.832;2022-07-04T03:21:47;2.70;;;1.40;;
23113;SDS011;11726;50.122;8.832;2022-07-04T03:24:14;2.20;;;1.42;;
23113;SDS011;11726;50.122;8.832;2022-07-04T03:26:41;2.20;;;1.60;;
23113;SDS011;11726;50.122;8.832;2022-07-04T03:29:07;2.42;;;1.58;;
23113;SDS011;11726;50.122;8.832;2022-07-04T03:31:34;1.98;;;1.35;;
23113;SDS011;11726;50.122;8.832;2022-07-04T03:34:00;3.30;;;1.63;;
23113;SDS011;11726;50.122;8.832;2022-07-04T03:36:27;2.92;;;1.50;;
23113;SDS011;11726;50.122;8.832;2022-07-04T03:38:54;2.97;;;1.55;;
23113;SDS011;11726;50.122;8.832;2022-07-04T03:41:20;2.40;;;1.65;;
23113;SDS011;11726;50.122;8.832;2022-07-04T03:43:47;2.38;;;1.35;;
23113;SDS011;11726;50.122;8.832;2022-07-04T03:46:14;3.65;;;1.65;;
23113;SDS011;11726;50.122;8.832;2022-07-04T03:48:40;1.58;;;1.48;;
23113;SDS011;11726;50.122;8.832;2022-07-04T03:51:10;2.92;;;1.40;;
23113;SDS011;11726;50.122;8.832;2022-07-04T03:53:38;2.55;;;1.50;;
23113;SDS011;11726;50.122;8.832;2022-07-04T03:56:05;4.78;;;1.77;;
23113;SDS011;11726;50.122;8.832;2022-07-04T03:58:32;3.67;;;1.98;;
23113;SDS011;11726;50.122;8.832;2022-07-04T04:00:58;3.20;;;1.65;;
23113;SDS011;11726;50.122;8.832;2022-07-04T04:03:25;2.53;;;1.70;;
23113;SDS011;11726;50.122;8.832;2022-07-04T04:06:11;2.83;;;1.75;;
23113;SDS011;11726;50.122;8.832;2022-07-04T04:08:38;2.85;;;1.80;;
23113;SDS011;11726;50.122;8.832;2022-07-04T04:11:04;4.22;;;1.77;;
23113;SDS011;11726;50.122;8.832;2022-07-04T04:13:31;2.17;;;1.77;;
23113;SDS011;11726;50.122;8.832;2022-07-04T04:15:58;6.47;;;1.98;;
23113;SDS011;11726;50.122;8.832;2022-07-04T04:18:24;3.85;;;1.50;;
23113;SDS011;11726;50.122;8.832;2022-07-04T04:20:51;4.00;;;1.50;;
23113;SDS011;11726;50.122;8.832;2022-07-04T04:23:18;3.10;;;1.58;;
23113;SDS011;11726;50.122;8.832;2022-07-04T04:25:46;6.32;;;1.98;;
23113;SDS011;11726;50.122;8.832;2022-07-04T04:28:20;3.40;;;1.40;;
23113;SDS011;11726;50.122;8.832;2022-07-04T04:30:47;4.05;;;1.83;;
23113;SDS011;11726;50.122;8.832;2022-07-04T04:33:14;5.57;;;1.70;;
23113;SDS011;11726;50.122;8.832;2022-07-04T04:35:40;5.78;;;1.60;;
23113;SDS011;11726;50.122;8.832;2022-07-04T04:38:07;2.78;;;1.60;;
23113;SDS011;11726;50.122;8.832;2022-07-04T04:40:34;3.45;;;1.50;;
23113;SDS011;11726;50.122;8.832;2022-07-04T04:43:01;2.58;;;1.42;;
23113;SDS011;11726;50.122;8.832;2022-07-04T04:45:28;2.60;;;1.50;;
23113;SDS011;11726;50.122;8.832;2022-07-04T04:47:55;2.25;;;1.38;;
23113;SDS011;11726;50.122;8.832;2022-07-04T04:50:22;2.70;;;1.38;;
23113;SDS011;11726;50.122;8.832;2022-07-04T04:52:48;3.85;;;1.90;;
23113;SDS011;11726;50.122;8.832;2022-07-04T04:55:15;3.20;;;1.90;;
23113;SDS011;11726;50.122;8.832;2022-07-04T04:57:42;3.90;;;1.77;;
23113;SDS011;11726;50.122;8.832;2022-07-04T05:00:08;2.45;;;1.70;;
23113;SDS011;11726;50.122;8.832;2022-07-04T05:02:36;2.78;;;1.42;;
23113;SDS011;11726;50.122;8.832;2022-07-04T05:05:03;3.42;;;1.83;;
23113;SDS011;11726;50.122;8.832;2022-07-04T05:07:30;4.80;;;1.80;;
23113;SDS011;11726;50.122;8.832;2022-07-04T05:09:57;4.20;;;1.52;;
23113;SDS011;11726;50.122;8.832;2022-07-04T05:12:25;2.08;;;1.50;;
23113;SDS011;11726;50.122;8.832;2022-07-04T05:14:53;2.63;;;1.40;;
23113;SDS011;11726;50.122;8.832;2022-07-04T05:17:20;5.00;;;2.00;;
23113;SDS011;11726;50.122;8.832;2022-07-04T05:19:47;4.95;;;3.22;;
23113;SDS011;11726;50.122;8.832;2022-07-04T05:22:14;2.83;;;1.90;;
23113;SDS011;11726;50.122;8.832;2022-07-04T05:24:41;3.45;;;1.98;;
23113;SDS011;11726;50.122;8.832;2022-07-04T05:27:08;3.70;;;1.80;;
23113;SDS011;11726;50.122;8.832;2022-07-04T05:29:35;4.28;;;1.40;;
23113;SDS011;11726;50.122;8.832;2022-07-04T05:32:04;2.53;;;1.50;;
23113;SDS011;11726;50.122;8.832;2022-07-04T05:34:31;1.90;;;1.40;;
23113;SDS011;11726;50.122;8.832;2022-07-04T05:36:58;2.50;;;1.55;;
23113;SDS011;11726;50.122;8.832;2022-07-04T05:39:25;2.00;;;1.40;;
23113;SDS011;11726;50.122;8.832;2022-07-04T05:41:51;2.70;;;1.50;;
23113;SDS011;11726;50.122;8.832;2022-07-04T05:44:18;4.43;;;1.65;;
23113;SDS011;11726;50.122;8.832;2022-07-04T05:46:44;3.03;;;1.35;;
23113;SDS011;11726;50.122;8.832;2022-07-04T05:49:11;6.43;;;1.50;;
23113;SDS011;11726;50.122;8.832;2022-07-04T05:51:38;2.50;;;1.45;;
23113;SDS011;11726;50.122;8.832;2022-07-04T05:54:04;3.15;;;1.40;;
23113;SDS011;11726;50.122;8.832;2022-07-04T05:56:31;2.05;;;1.30;;
23113;SDS011;11726;50.122;8.832;2022-07-04T05:58:58;4.18;;;1.75;;
23113;SDS011;11726;50.122;8.832;2022-07-04T06:01:24;4.25;;;1.58;;
23113;SDS011;11726;50.122;8.832;2022-07-04T06:03:51;3.42;;;1.20;;
23113;SDS011;11726;50.122;8.832;2022-07-04T06:06:18;1.80;;;1.30;;
23113;SDS011;11726;50.122;8.832;2022-07-04T06:08:45;4.13;;;1.30;;
23113;SDS011;11726;50.122;8.832;2022-07-04T06:11:12;3.42;;;1.50;;
23113;SDS011;11726;50.122;8.832;2022-07-04T06:13:38;4.18;;;1.40;;
23113;SDS011;11726;50.122;8.832;2022-07-04T06:16:05;2.92;;;1.58;;
23113;SDS011;11726;50.122;8.832;2022-07-04T06:18:32;3.30;;;1.50;;
23113;SDS011;11726;50.122;8.832;2022-07-04T06:20:58;3.78;;;1.60;;
23113;SDS011;11726;50.122;8.832;2022-07-04T06:23:25;2.03;;;1.50;;
23113;SDS011;11726;50.122;8.832;2022-07-04T06:25:52;3.45;;;1.50;;
23113;SDS011;11726;50.122;8.832;2022-07-04T06:28:18;2.70;;;1.20;;
23113;SDS011;11726;50.122;8.832;2022-07-04T06:31:05;2.00;;;1.38;;
23113;SDS011;11726;50.122;8.832;2022-07-04T06:33:31;3.00;;;1.40;;
23113;SDS011;11726;50.122;8.832;2022-07-04T06:35:58;2.08;;;1.30;;
23113;SDS011;11726;50.122;8.832;2022-07-04T06:38:26;6.18;;;1.40;;
23113;SDS011;11726;50.122;8.832;2022-07-04T06:40:55;1.77;;;1.20;;
23113;SDS011;11726;50.122;8.832;2022-07-04T06:43:24;1.95;;;1.17;;
23113;SDS011;11726;50.122;8.832;2022-07-04T06:45:51;2.53;;;1.17;;
23113;SDS011;11726;50.122;8.832;2022-07-04T06:48:18;2.45;;;1.35;;
23113;SDS011;11726;50.122;8.832;2022-07-04T06:50:45;2.00;;;1.10;;
23113;SDS011;11726;50.122;8.832;2022-07-04T06:53:11;3.45;;;1.10;;
23113;SDS011;11726;50.122;8.832;2022-07-04T06:55:39;2.20;;;0.93;;
23113;SDS011;11726;50.122;8.832;2022-07-04T06:58:07;2.95;;;1.35;;
23113;SDS011;11726;50.122;8.832;2022-07-04T07:00:35;3.10;;;1.30;;
23113;SDS011;11726;50.122;8.832;2022-07-04T07:03:02;2.05;;;1.20;;
23113;SDS011;11726;50.122;8.832;2022-07-04T07:05:30;3.83;;;0.98;;
23113;SDS011;11726;50.122;8.832;2022-07-04T07:08:17;2.15;;;1.00;;
23113;SDS011;11726;50.122;8.832;2022-07-04T07:10:43;3.47;;;1.15;;
23113;SDS011;11726;50.122;8.832;2022-07-04T07:13:10;3.53;;;1.02;;
23113;SDS011;11726;50.122;8.832;2022-07-04T07:15:37;1.35;;;0.90;;
23113;SDS011;11726;50.122;8.832;2022-07-04T07:18:04;2.75;;;0.90;;
23113;SDS011;11726;50.122;8.832;2022-07-04T07:20:32;0.90;;;0.80;;
23113;SDS011;11726;50.122;8.832;2022-07-04T07:23:02;3.83;;;1.20;;
23113;SDS011;11726;50.122;8.832;2022-07-04T07:25:29;1.38;;;0.90;;
23113;SDS011;11726;50.122;8.832;2022-07-04T07:27:56;3.55;;;0.90;;
23113;SDS011;11726;50.122;8.832;2022-07-04T07:30:23;2.40;;;0.80;;
23113;SDS011;11726;50.122;8.832;2022-07-04T07:32:50;2.58;;;1.00;;
23113;SDS011;11726;50.122;8.832;2022-07-04T07:35:17;2.13;;;0.80;;
23113;SDS011;11726;50.122;8.832;2022-07-04T07:37:43;2.60;;;0.80;;
23113;SDS011;11726;50.122;8.832;2022-07-04T07:40:10;1.73;;;0.77;;
23113;SDS011;11726;50.122;8.832;2022-07-04T07:42:36;4.13;;;1.10;;
23113;SDS011;11726;50.122;8.832;2022-07-04T07:45:03;1.30;;;0.70;;
23113;SDS011;11726;50.122;8.832;2022-07-04T07:47:30;3.53;;;1.08;;
23113;SDS011;11726;50.122;8.832;2022-07-04T07:49:57;1.67;;;0.70;;
23113;SDS011;11726;50.122;8.832;2022-07-04T07:52:24;2.70;;;0.90;;
23113;SDS011;11726;50.122;8.832;2022-07-04T07:54:53;1.90;;;0.88;;
23113;SDS011;11726;50.122;8.832;2022-07-04T07:57:28;1.48;;;0.80;;
23113;SDS011;11726;50.122;8.832;2022-07-04T07:59:55;3.50;;;1.15;;
23113;SDS011;11726;50.122;8.832;2022-07-04T08:02:22;1.70;;;0.80;;
23113;SDS011;11726;50.122;8.832;2022-07-04T08:05:08;4.03;;;1.02;;
23113;SDS011;11726;50.122;8.832;2022-07-04T08:07:35;2.85;;;1.00;;
23113;SDS011;11726;50.122;8.832;2022-07-04T08:10:02;2.15;;;0.82;;
23113;SDS011;11726;50.122;8.832;2022-07-04T08:12:29;0.82;;;0.70;;
23113;SDS011;11726;50.122;8.832;2022-07-04T08:14:56;2.92;;;1.10;;
23113;SDS011;11726;50.122;8.832;2022-07-04T08:17:30;3.63;;;0.90;;
23113;SDS011;11726;50.122;8.832;2022-07-04T08:19:57;2.53;;;0.80;;
23113;SDS011;11726;50.122;8.832;2022-07-04T08:22:24;4.25;;;1.05;;
23113;SDS011;11726;50.122;8.832;2022-07-04T08:24:50;2.40;;;0.80;;
23113;SDS011;11726;50.122;8.832;2022-07-04T08:27:17;1.50;;;0.82;;
23113;SDS011;11726;50.122;8.832;2022-07-04T08:29:44;1.98;;;0.88;;
23113;SDS011;11726;50.122;8.832;2022-07-04T08:32:11;2.40;;;0.88;;
23113;SDS011;11726;50.122;8.832;2022-07-04T08:34:37;3.22;;;0.75;;
23113;SDS011;11726;50.122;8.832;2022-07-04T08:37:04;1.95;;;0.73;;
23113;SDS011;11726;50.122;8.832;2022-07-04T08:39:31;3.10;;;0.75;;
23113;SDS011;11726;50.122;8.832;2022-07-04T08:41:59;1.95;;;0.60;;
23113;SDS011;11726;50.122;8.832;2022-07-04T08:44:29;3.20;;;1.00;;
23113;SDS011;11726;50.122;8.832;2022-07-04T08:46:56;2.00;;;0.85;;
23113;SDS011;11726;50.122;8.832;2022-07-04T08:49:24;3.17;;;0.80;;
23113;SDS011;11726;50.122;8.832;2022-07-04T08:52:00;3.67;;;0.90;;
23113;SDS011;11726;50.122;8.832;2022-07-04T08:54:36;3.10;;;0.90;;
23113;SDS011;11726;50.122;8.832;2022-07-04T08:57:23;3.60;;;1.17;;
23113;SDS011;11726;50.122;8.832;2022-07-04T09:02:35;2.25;;;0.80;;
23113;SDS011;11726;50.122;8.832;2022-07-04T09:05:05;3.38;;;0.90;;
23113;SDS011;11726;50.122;8.832;2022-07-04T09:07:34;1.50;;;0.82;;
23113;SDS011;11726;50.122;8.832;2022-07-04T09:10:00;2.33;;;0.73;;
23113;SDS011;11726;50.122;8.832;2022-07-04T09:12:29;4.28;;;0.95;;
23113;SDS011;11726;50.122;8.832;2022-07-04T09:15:15;2.85;;;0.90;;
23113;SDS011;11726;50.122;8.832;2022-07-04T09:17:43;1.55;;;0.68;;
23113;SDS011;11726;50.122;8.832;2022-07-04T09:20:14;4.60;;;0.93;;
23113;SDS011;11726;50.122;8.832;2022-07-04T09:22:43;2.95;;;0.93;;
23113;SDS011;11726;50.122;8.832;2022-07-04T09:25:11;1.10;;;0.73;;
23113;SDS011;11726;50.122;8.832;2022-07-04T09:27:47;2.05;;;0.88;;
23113;SDS011;11726;50.122;8.832;2022-07-04T09:32:44;3.05;;;1.05;;
23113;SDS011;11726;50.122;8.832;2022-07-04T09:35:22;2.90;;;0.73;;
23113;SDS011;11726;50.122;8.832;2022-07-04T09:37:59;2.67;;;0.95;;
23113;SDS011;11726;50.122;8.832;2022-07-04T09:40:31;1.95;;;0.90;;
23113;SDS011;11726;50.122;8.832;2022-07-04T09:42:59;1.08;;;0.70;;
23113;SDS011;11726;50.122;8.832;2022-07-04T09:45:36;2.60;;;0.98;;
23113;SDS011;11726;50.122;8.832;2022-07-04T09:51:14;1.55;;;0.70;;
23113;SDS011;11726;50.122;8.832;2022-07-04T09:53:40;2.45;;;0.80;;
23113;SDS011;11726;50.122;8.832;2022-07-04T09:56:07;3.03;;;0.75;;
23113;SDS011;11726;50.122;8.832;2022-07-04T09:58:34;2.75;;;0.80;;
23113;SDS011;11726;50.122;8.832;2022-07-04T10:01:01;3.38;;;0.82;;
23113;SDS011;11726;50.122;8.832;2022-07-04T10:03:28;1.65;;;0.90;;
23113;SDS011;11726;50.122;8.832;2022-07-04T10:06:06;2.35;;;0.93;;
23113;SDS011;11726;50.122;8.832;2022-07-04T10:08:38;2.03;;;1.00;;
23113;SDS011;11726;50.122;8.832;2022-07-04T10:11:06;2.58;;;1.40;;
23113;SDS011;11726;50.122;8.832;2022-07-04T10:13:35;3.45;;;1.00;;
23113;SDS011;11726;50.122;8.832;2022-07-04T10:16:03;2.75;;;1.25;;
23113;SDS011;11726;50.122;8.832;2022-07-04T10:18:30;5.45;;;1.20;;
23113;SDS011;11726;50.122;8.832;2022-07-04T10:20:57;1.20;;;0.82;;
23113;SDS011;11726;50.122;8.832;2022-07-04T10:23:24;3.53;;;0.90;;
23113;SDS011;11726;50.122;8.832;2022-07-04T10:25:57;6.25;;;1.05;;
23113;SDS011;11726;50.122;8.832;2022-07-04T10:28:24;2.35;;;0.90;;
23113;SDS011;11726;50.122;8.832;2022-07-04T10:30:51;3.42;;;1.20;;
23113;SDS011;11726;50.122;8.832;2022-07-04T10:33:29;4.13;;;1.10;;
23113;SDS011;11726;50.122;8.832;2022-07-04T10:35:57;3.22;;;1.00;;
23113;SDS011;11726;50.122;8.832;2022-07-04T10:38:29;1.63;;;0.88;;
23113;SDS011;11726;50.122;8.832;2022-07-04T10:40:58;2.92;;;1.02;;
23113;SDS011;11726;50.122;8.832;2022-07-04T10:48:36;2.83;;;0.90;;
23113;SDS011;11726;50.122;8.832;2022-07-04T10:51:42;1.98;;;0.77;;
23113;SDS011;11726;50.122;8.832;2022-07-04T10:54:13;2.22;;;0.98;;
23113;SDS011;11726;50.122;8.832;2022-07-04T10:56:41;4.57;;;1.10;;
23113;SDS011;11726;50.122;8.832;2022-07-04T10:59:10;1.13;;;0.68;;
23113;SDS011;11726;50.122;8.832;2022-07-04T11:07:21;2.53;;;0.82;;
23113;SDS011;11726;50.122;8.832;2022-07-04T11:10:31;3.42;;;1.10;;
23113;SDS011;11726;50.122;8.832;2022-07-04T11:20:30;2.78;;;0.70;;
23113;SDS011;11726;50.122;8.832;2022-07-04T11:23:05;2.75;;;0.75;;
23113;SDS011;11726;50.122;8.832;2022-07-04T11:25:37;1.05;;;0.60;;
23113;SDS011;11726;50.122;8.832;2022-07-04T11:31:10;2.03;;;0.70;;
23113;SDS011;11726;50.122;8.832;2022-07-04T11:33:37;2.95;;;0.63;;
23113;SDS011;11726;50.122;8.832;2022-07-04T11:36:13;4.00;;;0.90;;
23113;SDS011;11726;50.122;8.832;2022-07-04T11:41:20;2.30;;;0.60;;
23113;SDS011;11726;50.122;8.832;2022-07-04T11:44:14;1.30;;;0.60;;
23113;SDS011;11726;50.122;8.832;2022-07-04T11:49:34;2.38;;;0.43;;
23113;SDS011;11726;50.122;8.832;2022-07-04T11:52:01;1.85;;;0.63;;
23113;SDS011;11726;50.122;8.832;2022-07-04T11:54:28;3.55;;;0.75;;
23113;SDS011;11726;50.122;8.832;2022-07-04T11:59:53;2.53;;;0.60;;
23113;SDS011;11726;50.122;8.832;2022-07-04T12:02:30;2.38;;;0.60;;
23113;SDS011;11726;50.122;8.832;2022-07-04T12:04:59;2.75;;;0.70;;
23113;SDS011;11726;50.122;8.832;2022-07-04T12:07:29;2.00;;;0.57;;
23113;SDS011;11726;50.122;8.832;2022-07-04T12:10:15;1.85;;;0.50;;
23113;SDS011;11726;50.122;8.832;2022-07-04T12:15:36;2.35;;;0.40;;
23113;SDS011;11726;50.122;8.832;2022-07-04T12:21:11;1.80;;;0.82;;
23113;SDS011;11726;50.122;8.832;2022-07-04T12:23:41;2.83;;;0.60;;
23113;SDS011;11726;50.122;8.832;2022-07-04T12:26:33;2.25;;;0.60;;
23113;SDS011;11726;50.122;8.832;2022-07-04T12:29:01;1.75;;;0.50;;
23113;SDS011;11726;50.122;8.832;2022-07-04T12:31:37;1.92;;;0.40;;
23113;SDS011;11726;50.122;8.832;2022-07-04T12:34:04;2.10;;;0.50;;
23113;SDS011;11726;50.122;8.832;2022-07-04T12:36:53;1.58;;;0.50;;
23113;SDS011;11726;50.122;8.832;2022-07-04T12:39:34;3.03;;;0.50;;
23113;SDS011;11726;50.122;8.832;2022-07-04T12:44:34;2.20;;;0.63;;
23113;SDS011;11726;50.122;8.832;2022-07-04T12:47:01;2.28;;;0.57;;
23113;SDS011;11726;50.122;8.832;2022-07-04T12:49:43;2.13;;;0.50;;
23113;SDS011;11726;50.122;8.832;2022-07-04T12:54:39;1.67;;;0.90;;
23113;SDS011;11726;50.122;8.832;2022-07-04T12:57:13;0.65;;;0.50;;
23113;SDS011;11726;50.122;8.832;2022-07-04T12:59:44;2.35;;;0.55;;
23113;SDS011;11726;50.122;8.832;2022-07-04T13:02:11;1.48;;;0.60;;
23113;SDS011;11726;50.122;8.832;2022-07-04T13:04:39;1.85;;;0.50;;
23113;SDS011;11726;50.122;8.832;2022-07-04T13:07:15;1.33;;;0.57;;
23113;SDS011;11726;50.122;8.832;2022-07-04T13:09:44;2.17;;;0.52;;
23113;SDS011;11726;50.122;8.832;2022-07-04T13:12:12;1.58;;;0.45;;
23113;SDS011;11726;50.122;8.832;2022-07-04T13:14:52;0.95;;;0.40;;
23113;SDS011;11726;50.122;8.832;2022-07-04T13:17:23;1.63;;;0.60;;
23113;SDS011;11726;50.122;8.832;2022-07-04T13:19:51;3.75;;;0.55;;
23113;SDS011;11726;50.122;8.832;2022-07-04T13:22:19;1.25;;;0.50;;
23113;SDS011;11726;50.122;8.832;2022-07-04T13:24:46;0.88;;;0.40;;
23113;SDS011;11726;50.122;8.832;2022-07-04T13:27:13;1.15;;;0.50;;
23113;SDS011;11726;50.122;8.832;2022-07-04T13:29:40;0.95;;;0.60;;
23113;SDS011;11726;50.122;8.832;2022-07-04T13:32:07;0.95;;;0.30;;
23113;SDS011;11726;50.122;8.832;2022-07-04T13:34:37;2.22;;;0.30;;
23113;SDS011;11726;50.122;8.832;2022-07-04T13:37:04;0.77;;;0.40;;
23113;SDS011;11726;50.122;8.832;2022-07-04T13:39:31;0.80;;;0.43;;
23113;SDS011;11726;50.122;8.832;2022-07-04T13:42:16;2.60;;;0.60;;
23113;SDS011;11726;50.122;8.832;2022-07-04T13:45:03;2.08;;;0.60;;
23113;SDS011;11726;50.122;8.832;2022-07-04T13:47:30;3.03;;;0.35;;
23113;SDS011;11726;50.122;8.832;2022-07-04T13:49:57;2.42;;;0.50;;
23113;SDS011;11726;50.122;8.832;2022-07-04T13:52:23;2.17;;;0.50;;
23113;SDS011;11726;50.122;8.832;2022-07-04T13:54:50;2.95;;;0.60;;
23113;SDS011;11726;50.122;8.832;2022-07-04T13:57:17;2.78;;;0.70;;
23113;SDS011;11726;50.122;8.832;2022-07-04T13:59:44;1.73;;;0.50;;
23113;SDS011;11726;50.122;8.832;2022-07-04T14:02:10;0.65;;;0.40;;
23113;SDS011;11726;50.122;8.832;2022-07-04T14:04:37;2.25;;;0.60;;
23113;SDS011;11726;50.122;8.832;2022-07-04T14:07:03;1.55;;;0.40;;
23113;SDS011;11726;50.122;8.832;2022-07-04T14:09:39;2.63;;;0.45;;
23113;SDS011;11726;50.122;8.832;2022-07-04T14:12:05;3.40;;;0.35;;
23113;SDS011;11726;50.122;8.832;2022-07-04T14:14:32;1.35;;;0.40;;
23113;SDS011;11726;50.122;8.832;2022-07-04T14:16:59;1.45;;;0.38;;
23113;SDS011;11726;50.122;8.832;2022-07-04T14:19:46;1.63;;;0.50;;
23113;SDS011;11726;50.122;8.832;2022-07-04T14:22:12;1.45;;;0.47;;
23113;SDS011;11726;50.122;8.832;2022-07-04T14:24:39;1.35;;;0.30;;
23113;SDS011;11726;50.122;8.832;2022-07-04T14:27:06;2.00;;;0.30;;
23113;SDS011;11726;50.122;8.832;2022-07-04T14:29:32;1.88;;;0.65;;
23113;SDS011;11726;50.122;8.832;2022-07-04T14:32:00;0.98;;;0.40;;
23113;SDS011;11726;50.122;8.832;2022-07-04T14:34:26;3.47;;;0.45;;
23113;SDS011;11726;50.122;8.832;2022-07-04T14:36:53;1.30;;;0.50;;
23113;SDS011;11726;50.122;8.832;2022-07-04T14:39:20;4.55;;;0.50;;
23113;SDS011;11726;50.122;8.832;2022-07-04T14:41:47;3.30;;;0.35;;
23113;SDS011;11726;50.122;8.832;2022-07-04T14:44:15;2.33;;;0.52;;
23113;SDS011;11726;50.122;8.832;2022-07-04T14:46:41;0.75;;;0.40;;
23113;SDS011;11726;50.122;8.832;2022-07-04T14:49:08;1.45;;;0.30;;
23113;SDS011;11726;50.122;8.832;2022-07-04T14:51:35;0.82;;;0.32;;
23113;SDS011;11726;50.122;8.832;2022-07-04T14:54:04;2.35;;;0.70;;
23113;SDS011;11726;50.122;8.832;2022-07-04T14:56:31;1.27;;;0.30;;
23113;SDS011;11726;50.122;8.832;2022-07-04T14:58:57;1.15;;;0.30;;
23113;SDS011;11726;50.122;8.832;2022-07-04T15:01:24;1.73;;;0.40;;
23113;SDS011;11726;50.122;8.832;2022-07-04T15:03:51;2.08;;;0.60;;
23113;SDS011;11726;50.122;8.832;2022-07-04T15:06:18;1.58;;;0.63;;
23113;SDS011;11726;50.122;8.832;2022-07-04T15:08:44;1.30;;;0.50;;
23113;SDS011;11726;50.122;8.832;2022-07-04T15:11:11;3.85;;;0.70;;
23113;SDS011;11726;50.122;8.832;2022-07-04T15:13:45;1.30;;;0.43;;
23113;SDS011;11726;50.122;8.832;2022-07-04T15:16:11;4.22;;;0.63;;
23113;SDS011;11726;50.122;8.832;2022-07-04T15:18:48;1.90;;;0.35;;
23113;SDS011;11726;50.122;8.832;2022-07-04T15:21:15;2.30;;;0.30;;
23113;SDS011;11726;50.122;8.832;2022-07-04T15:24:01;2.38;;;0.40;;
23113;SDS011;11726;50.122;8.832;2022-07-04T15:26:46;1.70;;;0.47;;
23113;SDS011;11726;50.122;8.832;2022-07-04T15:29:18;0.75;;;0.30;;
23113;SDS011;11726;50.122;8.832;2022-07-04T15:31:46;0.90;;;0.50;;
23113;SDS011;11726;50.122;8.832;2022-07-04T15:34:14;0.65;;;0.47;;
23113;SDS011;11726;50.122;8.832;2022-07-04T15:36:41;0.30;;;0.20;;
23113;SDS011;11726;50.122;8.832;2022-07-04T15:39:09;2.45;;;0.40;;
23113;SDS011;11726;50.122;8.832;2022-07-04T15:41:36;2.30;;;0.50;;
23113;SDS011;11726;50.122;8.832;2022-07-04T15:44:04;0.40;;;0.40;;
23113;SDS011;11726;50.122;8.832;2022-07-04T15:46:32;1.52;;;0.50;;